createdAt,value
2023-01-20T00:00:43.398Z,96.45
2023-01-20T00:03:09.967Z,96.94
2023-01-20T00:05:37.855Z,96.67
2023-01-20T00:08:05.130Z,96.94
2023-01-20T00:10:31.669Z,96.77
2023-01-20T00:12:58.216Z,96.42
2023-01-20T00:15:24.751Z,96.38
2023-01-20T00:17:51.354Z,96.09
2023-01-20T00:20:17.968Z,96.12
2023-01-20T00:22:45.937Z,96.52
2023-01-20T00:25:12.941Z,95.87
2023-01-20T00:27:39.731Z,95.86
2023-01-20T00:30:07.784Z,95.95
2023-01-20T00:32:37.218Z,96.36
2023-01-20T00:35:04.350Z,95.72
2023-01-20T00:37:31.055Z,95.78
2023-01-20T00:39:58.923Z,95.46
2023-01-20T00:42:25.508Z,95.47
2023-01-20T00:44:52.086Z,95.77
2023-01-20T00:47:18.688Z,96.32
2023-01-20T00:49:45.416Z,96.47
2023-01-20T00:52:12.090Z,96.72
2023-01-20T00:54:38.635Z,96.98
2023-01-20T00:57:06.870Z,96.99
2023-01-20T00:59:33.405Z,96.89
2023-01-20T01:02:00.054Z,96.98
2023-01-20T01:04:26.716Z,96.86
2023-01-20T01:06:53.466Z,96.63
2023-01-20T01:09:20.382Z,96.52
2023-01-20T01:11:46.987Z,96.36
2023-01-20T01:14:15.380Z,96.16
2023-01-20T01:16:42.087Z,96.33
2023-01-20T01:19:08.625Z,96.50
2023-01-20T01:21:35.248Z,96.68
2023-01-20T01:24:01.801Z,96.44
2023-01-20T01:26:28.447Z,96.56
2023-01-20T01:28:55.069Z,96.60
2023-01-20T01:31:23.177Z,96.50
2023-01-20T01:33:49.720Z,96.35
2023-01-20T01:36:17.253Z,96.61
2023-01-20T01:38:44.385Z,96.51
2023-01-20T01:41:12.758Z,96.90
2023-01-20T01:43:40.037Z,96.47
2023-01-20T01:46:06.964Z,96.43
2023-01-20T01:48:38.920Z,96.56
2023-01-20T01:51:07.362Z,96.30
2023-01-20T01:53:39.435Z,96.10
2023-01-20T01:56:06.775Z,96.16
2023-01-20T01:58:36.797Z,96.26
2023-01-20T02:01:04.049Z,96.07
2023-01-20T02:03:40.125Z,96.25
2023-01-20T02:06:07.422Z,96.58
2023-01-20T02:08:34.194Z,96.52
2023-01-20T02:11:00.810Z,96.28
2023-01-20T02:13:27.397Z,96.58
2023-01-20T02:16:04.815Z,96.43
2023-01-20T02:18:47.766Z,96.46
2023-01-20T02:21:47.719Z,96.44
2023-01-20T02:24:49.458Z,96.63
2023-01-20T02:27:24.852Z,96.93
2023-01-20T02:30:34.965Z,96.56
2023-01-20T02:33:10.167Z,96.85
2023-01-20T02:35:41.907Z,96.27
2023-01-20T02:38:16.387Z,96.20
2023-01-20T02:40:53.931Z,96.39
2023-01-20T02:43:30.351Z,96.31
2023-01-20T02:46:02.841Z,96.04
2023-01-20T02:48:36.681Z,96.53
2023-01-20T02:51:09.684Z,96.70
2023-01-20T02:53:41.624Z,96.81
2023-01-20T02:56:10.947Z,96.61
2023-01-20T02:58:42.126Z,97.11
2023-01-20T03:01:13.080Z,97.15
2023-01-20T03:03:46.449Z,97.21
2023-01-20T03:06:17.434Z,97.12
2023-01-20T03:08:47.314Z,97.15
2023-01-20T03:11:14.374Z,97.22
2023-01-20T03:13:46.373Z,96.97
2023-01-20T03:16:14.900Z,96.74
2023-01-20T03:18:43.031Z,97.31
2023-01-20T03:21:10.766Z,97.52
2023-01-20T03:23:40.261Z,97.11
2023-01-20T03:26:09.032Z,97.00
2023-01-20T03:28:35.651Z,97.50
2023-01-20T03:31:10.708Z,97.05
2023-01-20T03:33:37.580Z,97.48
2023-01-20T03:36:06.406Z,97.61
2023-01-20T03:38:33.148Z,97.29
2023-01-20T03:41:07.457Z,96.91
2023-01-20T03:43:43.664Z,97.03
2023-01-20T03:46:19.240Z,97.07
2023-01-20T03:48:51.468Z,96.86
2023-01-20T03:51:27.138Z,96.76
2023-01-20T03:53:57.433Z,96.60
2023-01-20T03:56:28.394Z,96.91
2023-01-20T03:58:59.852Z,95.67
2023-01-20T04:01:32.547Z,96.43
2023-01-20T04:04:00.975Z,96.78
2023-01-20T04:06:30.467Z,96.84
2023-01-20T04:09:02.454Z,97.06
2023-01-20T04:11:28.922Z,97.05
2023-01-20T04:13:55.471Z,97.21
2023-01-20T04:16:23.432Z,98.03
2023-01-20T04:18:51.716Z,97.43
2023-01-20T04:21:25.067Z,97.74
2023-01-20T04:23:58.634Z,97.16
2023-01-20T04:26:25.238Z,97.08
2023-01-20T04:28:51.814Z,97.08
2023-01-20T04:31:30.232Z,97.22
2023-01-20T04:33:58.002Z,97.25
2023-01-20T04:36:24.773Z,97.18
2023-01-20T04:38:52.771Z,96.80
2023-01-20T04:41:19.598Z,96.47
2023-01-20T04:43:46.744Z,96.38
2023-01-20T04:46:13.758Z,96.64
2023-01-20T04:48:40.612Z,96.53
2023-01-20T04:51:07.967Z,96.84
2023-01-20T04:53:35.069Z,96.61
2023-01-20T04:56:03.024Z,96.28
2023-01-20T04:58:29.649Z,96.21
2023-01-20T05:00:56.379Z,96.23
2023-01-20T05:03:23.007Z,96.29
2023-01-20T05:05:53.130Z,95.95
2023-01-20T05:08:19.756Z,95.88
2023-01-20T05:10:46.439Z,96.03
2023-01-20T05:13:15.570Z,95.96
2023-01-20T05:15:43.639Z,96.09
2023-01-20T05:18:10.246Z,96.03
2023-01-20T05:20:36.792Z,95.73
2023-01-20T05:23:03.340Z,95.76
2023-01-20T05:25:29.875Z,95.89
2023-01-20T05:27:56.398Z,95.97
2023-01-20T05:30:24.296Z,95.94
2023-01-20T05:32:50.918Z,95.76
2023-01-20T05:35:18.051Z,95.95
2023-01-20T05:37:44.576Z,95.93
2023-01-20T05:40:12.570Z,95.76
2023-01-20T05:42:39.435Z,95.84
2023-01-20T05:45:07.238Z,94.77
2023-01-20T05:47:35.135Z,94.84
2023-01-20T05:50:01.650Z,95.31
2023-01-20T05:52:28.151Z,95.62
2023-01-20T05:54:54.680Z,95.25
2023-01-20T05:57:23.832Z,95.20
2023-01-20T05:59:50.379Z,95.18
2023-01-20T06:02:17.119Z,95.83
2023-01-20T06:04:44.999Z,95.58
2023-01-20T06:07:11.718Z,96.07
2023-01-20T06:09:38.262Z,96.38
2023-01-20T06:12:05.430Z,96.74
2023-01-20T06:14:31.995Z,96.82
2023-01-20T06:16:58.537Z,96.54
2023-01-20T06:19:25.157Z,96.56
2023-01-20T06:21:53.208Z,97.06
2023-01-20T06:24:19.747Z,96.90
2023-01-20T06:26:46.255Z,97.06
2023-01-20T06:29:12.775Z,97.51
2023-01-20T06:31:39.475Z,97.75
2023-01-20T06:34:06.019Z,97.11
2023-01-20T06:36:32.539Z,97.48
2023-01-20T06:39:00.644Z,97.17
2023-01-20T06:41:27.196Z,97.22
2023-01-20T06:43:53.736Z,96.85
2023-01-20T06:46:20.414Z,96.97
2023-01-20T06:48:47.003Z,97.33
2023-01-20T06:51:15.793Z,97.26
2023-01-20T06:53:42.941Z,96.05
2023-01-20T06:56:12.713Z,96.17
2023-01-20T06:58:39.686Z,96.70
2023-01-20T07:01:08.828Z,97.05
2023-01-20T07:03:35.770Z,97.26
2023-01-20T07:06:05.431Z,96.73
2023-01-20T07:08:32.063Z,96.64
2023-01-20T07:10:58.707Z,96.42
2023-01-20T07:13:26.623Z,96.55
2023-01-20T07:15:53.260Z,96.66
2023-01-20T07:18:19.802Z,96.49
2023-01-20T07:20:46.361Z,96.41
2023-01-20T07:23:12.947Z,96.61
2023-01-20T07:25:39.464Z,96.54
2023-01-20T07:28:05.971Z,96.82
2023-01-20T07:30:33.889Z,96.25
2023-01-20T07:33:00.609Z,96.10
2023-01-20T07:35:27.255Z,96.19
2023-01-20T07:37:53.781Z,96.47
2023-01-20T07:40:20.477Z,96.88
2023-01-20T07:42:47.048Z,96.77
2023-01-20T07:45:14.083Z,96.46
2023-01-20T07:47:42.120Z,96.98
2023-01-20T07:50:09.727Z,96.71
2023-01-20T07:52:36.261Z,96.45
2023-01-20T07:55:02.880Z,96.09
2023-01-20T07:57:29.516Z,96.42
2023-01-20T07:59:56.093Z,96.30
2023-01-20T08:02:22.648Z,95.94
2023-01-20T08:04:50.610Z,96.29
2023-01-20T08:07:17.189Z,96.15
2023-01-20T08:09:44.011Z,96.45
2023-01-20T08:12:10.567Z,96.10
2023-01-20T08:14:37.938Z,96.22
2023-01-20T08:17:04.613Z,96.00
2023-01-20T08:19:31.142Z,95.77
2023-01-20T08:21:59.026Z,95.62
2023-01-20T08:24:25.649Z,95.67
2023-01-20T08:26:52.309Z,96.01
2023-01-20T08:29:19.193Z,95.69
2023-01-20T08:31:45.897Z,95.79
2023-01-20T08:34:12.487Z,95.65
2023-01-20T08:36:40.789Z,94.75
2023-01-20T08:39:13.064Z,94.88
2023-01-20T08:41:42.800Z,95.09
2023-01-20T08:44:10.530Z,94.78
2023-01-20T08:46:41.214Z,94.68
2023-01-20T08:49:09.008Z,94.43
2023-01-20T08:51:35.833Z,94.33
2023-01-20T08:54:02.705Z,93.48
2023-01-20T08:56:31.369Z,93.86
2023-01-20T08:58:58.676Z,93.59
2023-01-20T09:01:28.068Z,93.02
2023-01-20T09:04:05.472Z,93.08
2023-01-20T09:06:40.913Z,93.00
2023-01-20T09:09:07.808Z,92.83
2023-01-20T09:11:36.021Z,92.80
2023-01-20T09:14:02.604Z,92.90
2023-01-20T09:16:29.220Z,92.82
2023-01-20T09:18:55.790Z,92.76
2023-01-20T09:21:23.677Z,92.78
2023-01-20T09:23:50.239Z,92.74
2023-01-20T09:26:29.790Z,92.59
2023-01-20T09:29:02.787Z,91.86
2023-01-20T09:31:29.415Z,91.84
2023-01-20T09:33:55.969Z,91.33
2023-01-20T09:36:22.487Z,91.48
2023-01-20T09:38:49.084Z,90.77
2023-01-20T09:41:18.267Z,90.01
2023-01-20T09:43:54.115Z,89.83
2023-01-20T09:46:31.229Z,89.55
2023-01-20T09:49:08.060Z,89.52
2023-01-20T09:51:46.115Z,88.17
2023-01-20T09:54:20.079Z,88.08
2023-01-20T09:56:49.382Z,84.75
2023-01-20T09:59:22.851Z,81.72
2023-01-20T10:01:54.675Z,81.47
2023-01-20T10:04:27.733Z,82.37
2023-01-20T10:07:02.965Z,79.90
2023-01-20T10:09:36.187Z,80.58
2023-01-20T10:12:08.099Z,80.83
2023-01-20T10:14:40.468Z,77.92
2023-01-20T10:17:16.257Z,74.63
2023-01-20T10:19:49.399Z,75.65
2023-01-20T10:22:20.700Z,74.81
2023-01-20T10:24:52.914Z,75.79
2023-01-20T10:27:19.481Z,76.12
2023-01-20T10:29:51.807Z,76.02
2023-01-20T10:32:24.572Z,76.51
2023-01-20T10:34:56.425Z,76.41
2023-01-20T10:37:24.261Z,76.81
2023-01-20T10:39:55.890Z,76.34
2023-01-20T10:42:22.575Z,76.30
2023-01-20T10:44:52.378Z,76.48
2023-01-20T10:47:25.348Z,76.21
2023-01-20T10:50:09.539Z,76.26
2023-01-20T10:53:06.062Z,76.27
2023-01-20T10:55:43.254Z,74.46
2023-01-20T10:58:18.236Z,74.87
2023-01-20T11:00:45.050Z,74.51
2023-01-20T11:03:17.712Z,72.93
2023-01-20T11:05:46.515Z,73.87
2023-01-20T11:08:18.359Z,74.82
2023-01-20T11:10:46.813Z,74.79
2023-01-20T11:13:13.477Z,73.72
2023-01-20T11:15:43.847Z,73.57
2023-01-20T11:18:23.014Z,74.00
2023-01-20T11:20:52.012Z,75.06
2023-01-20T11:23:23.663Z,72.44
2023-01-20T11:25:56.264Z,73.16
2023-01-20T11:28:23.859Z,74.16
2023-01-20T11:30:55.417Z,74.05
2023-01-20T11:33:25.939Z,71.87
2023-01-20T11:36:01.261Z,70.84
2023-01-20T11:38:30.382Z,71.40
2023-01-20T11:40:58.116Z,72.10
2023-01-20T11:43:28.777Z,72.29
2023-01-20T11:46:13.556Z,71.78
2023-01-20T11:48:41.889Z,71.81
2023-01-20T11:51:19.785Z,72.77
2023-01-20T11:53:46.774Z,71.56
2023-01-20T11:56:19.744Z,72.05
2023-01-20T11:58:51.822Z,71.82
2023-01-20T12:01:23.295Z,72.20
2023-01-20T12:04:17.651Z,71.41
2023-01-20T12:06:51.578Z,70.64
2023-01-20T12:09:23.028Z,72.06
2023-01-20T12:11:55.990Z,71.74
2023-01-20T12:14:27.524Z,72.12
2023-01-20T12:17:12.919Z,71.69
2023-01-20T12:19:53.702Z,71.93
2023-01-20T12:22:25.748Z,73.22
2023-01-20T12:24:56.217Z,71.24
2023-01-20T12:27:26.985Z,71.83
2023-01-20T12:29:58.325Z,72.39
2023-01-20T12:32:24.956Z,72.98
2023-01-20T12:34:52.911Z,73.09
2023-01-20T12:37:28.655Z,72.58
2023-01-20T12:40:18.862Z,71.73
2023-01-20T12:43:12.810Z,72.72
2023-01-20T12:45:53.080Z,73.02
2023-01-20T12:48:34.691Z,73.30
2023-01-20T12:51:14.650Z,71.21
2023-01-20T12:54:02.947Z,71.36
2023-01-20T12:56:40.018Z,72.43
2023-01-20T12:59:17.041Z,70.82
2023-01-20T13:02:08.051Z,70.85
2023-01-20T13:05:06.377Z,71.73
2023-01-20T13:07:52.442Z,72.27
2023-01-20T13:10:33.065Z,71.95
2023-01-20T13:13:10.811Z,73.15
2023-01-20T13:15:42.659Z,73.53
2023-01-20T13:18:21.394Z,72.98
2023-01-20T13:20:48.909Z,73.23
2023-01-20T13:23:23.441Z,73.60
2023-01-20T13:25:51.504Z,73.19
2023-01-20T13:28:21.150Z,73.69
2023-01-20T13:30:49.614Z,73.82
2023-01-20T13:33:33.019Z,74.15
2023-01-20T13:36:00.811Z,73.30
2023-01-20T13:38:30.320Z,72.95
2023-01-20T13:40:58.302Z,72.91
2023-01-20T13:43:46.662Z,73.22
2023-01-20T13:46:44.979Z,73.36
2023-01-20T13:49:14.945Z,72.69
2023-01-20T13:51:46.162Z,73.59
2023-01-20T13:54:52.329Z,73.84
2023-01-20T13:57:47.459Z,73.51
2023-01-20T14:00:19.454Z,74.82
2023-01-20T14:02:47.911Z,74.80
2023-01-20T14:05:27.024Z,74.87
2023-01-20T14:07:54.250Z,75.64
2023-01-20T14:10:20.880Z,76.25
2023-01-20T14:12:49.226Z,77.58
2023-01-20T14:15:34.972Z,77.47
2023-01-20T14:18:02.460Z,78.31
2023-01-20T14:20:30.086Z,78.33
2023-01-20T14:23:25.091Z,79.15
2023-01-20T14:26:08.239Z,80.52
2023-01-20T14:28:41.135Z,81.06
2023-01-20T14:31:34.438Z,80.99
2023-01-20T14:34:18.475Z,81.90
2023-01-20T14:36:45.992Z,82.46
2023-01-20T14:39:19.755Z,82.90
2023-01-20T14:41:47.940Z,83.43
2023-01-20T14:44:19.498Z,83.54
2023-01-20T14:46:48.296Z,84.33
2023-01-20T14:49:17.151Z,84.46
2023-01-20T14:51:46.097Z,84.93
2023-01-20T14:54:39.156Z,85.70
2023-01-20T14:57:20.096Z,85.86
2023-01-20T14:59:59.043Z,86.35
2023-01-20T15:02:29.785Z,86.52
2023-01-20T15:04:56.488Z,86.47
2023-01-20T15:07:24.437Z,86.93
2023-01-20T15:09:55.185Z,86.99
2023-01-20T15:12:38.948Z,87.71
2023-01-20T15:15:23.286Z,87.78
2023-01-20T15:18:20.634Z,87.31
2023-01-20T15:20:50.198Z,87.91
2023-01-20T15:23:30.094Z,87.54
2023-01-20T15:26:06.050Z,87.91
2023-01-20T15:28:37.368Z,88.33
2023-01-20T15:31:05.549Z,87.04
2023-01-20T15:33:32.190Z,87.45
2023-01-20T15:36:00.634Z,87.66
2023-01-20T15:38:30.270Z,87.66
2023-01-20T15:40:56.843Z,88.04
2023-01-20T15:43:23.458Z,87.75
2023-01-20T15:45:50.082Z,88.25
2023-01-20T15:48:19.936Z,88.36
2023-01-20T15:50:47.327Z,88.56
2023-01-20T15:53:14.442Z,88.95
2023-01-20T15:55:46.847Z,89.60
2023-01-20T15:58:24.007Z,90.13
2023-01-20T16:00:51.052Z,89.63
2023-01-20T16:03:18.946Z,89.82
2023-01-20T16:05:48.092Z,89.49
2023-01-20T16:08:16.051Z,89.98
2023-01-20T16:10:43.014Z,89.87
2023-01-20T16:13:09.902Z,90.40
2023-01-20T16:15:37.123Z,89.97
2023-01-20T16:18:04.097Z,90.56
2023-01-20T16:20:35.147Z,90.82
2023-01-20T16:23:01.862Z,90.36
2023-01-20T16:25:29.336Z,90.21
2023-01-20T16:27:57.098Z,91.02
2023-01-20T16:30:23.835Z,91.05
2023-01-20T16:32:50.840Z,90.72
2023-01-20T16:35:19.051Z,90.65
2023-01-20T16:37:47.663Z,90.21
2023-01-20T16:40:15.371Z,89.78
2023-01-20T16:42:42.293Z,89.91
2023-01-20T16:45:20.869Z,90.04
2023-01-20T16:47:47.875Z,90.35
2023-01-20T16:50:15.173Z,90.24
2023-01-20T16:52:42.164Z,88.65
2023-01-20T16:55:13.338Z,89.00
2023-01-20T16:57:40.307Z,88.74
2023-01-20T17:00:08.933Z,89.05
2023-01-20T17:02:35.675Z,88.99
2023-01-20T17:05:02.230Z,88.53
2023-01-20T17:07:28.868Z,88.43
2023-01-20T17:09:55.398Z,88.54
2023-01-20T17:12:23.413Z,88.04
2023-01-20T17:14:50.105Z,88.03
2023-01-20T17:17:16.728Z,88.39
2023-01-20T17:19:43.269Z,88.04
2023-01-20T17:22:09.956Z,88.34
2023-01-20T17:24:36.757Z,88.23
2023-01-20T17:27:03.531Z,88.04
2023-01-20T17:29:31.487Z,87.83
2023-01-20T17:31:58.155Z,88.13
2023-01-20T17:34:25.118Z,88.22
2023-01-20T17:36:51.767Z,88.80
2023-01-20T17:39:18.286Z,89.44
2023-01-20T17:41:44.898Z,89.46
2023-01-20T17:44:12.465Z,89.97
2023-01-20T17:46:40.461Z,89.61
2023-01-20T17:49:07.275Z,90.24
2023-01-20T17:51:34.253Z,90.44
2023-01-20T17:54:03.517Z,90.50
2023-01-20T17:56:30.970Z,90.95
2023-01-20T17:58:57.852Z,90.81
2023-01-20T18:01:26.695Z,91.17
2023-01-20T18:03:56.421Z,91.07
2023-01-20T18:06:24.544Z,91.44
2023-01-20T18:08:53.395Z,91.35
2023-01-20T18:11:20.601Z,91.42
2023-01-20T18:13:48.423Z,92.05
2023-01-20T18:16:16.687Z,91.83
2023-01-20T18:18:44.652Z,91.76
2023-01-20T18:21:14.656Z,91.52
2023-01-20T18:23:42.396Z,91.08
2023-01-20T18:26:10.967Z,90.96
2023-01-20T18:28:37.992Z,91.49
2023-01-20T18:31:06.856Z,91.42
2023-01-20T18:33:33.689Z,91.67
2023-01-20T18:36:02.146Z,91.64
2023-01-20T18:38:30.025Z,92.06
2023-01-20T18:40:56.551Z,92.02
2023-01-20T18:43:23.169Z,92.08
2023-01-20T18:45:52.438Z,91.76
2023-01-20T18:48:18.963Z,91.60
2023-01-20T18:50:45.540Z,91.81
2023-01-20T18:53:12.115Z,91.80
2023-01-20T18:55:39.983Z,91.98
2023-01-20T18:58:06.528Z,92.02
2023-01-20T19:00:33.054Z,92.95
2023-01-20T19:02:59.587Z,93.27
2023-01-20T19:05:26.456Z,93.23
2023-01-20T19:07:53.002Z,93.51
2023-01-20T19:10:19.632Z,93.05
2023-01-20T19:12:47.513Z,93.53
2023-01-20T19:15:14.143Z,93.50
2023-01-20T19:17:40.664Z,93.99
2023-01-20T19:20:08.445Z,94.04
2023-01-20T19:22:34.951Z,93.70
2023-01-20T19:25:01.457Z,94.28
2023-01-20T19:27:27.993Z,93.92
2023-01-20T19:29:55.853Z,93.76
2023-01-20T19:32:22.358Z,93.44
2023-01-20T19:34:48.967Z,93.31
2023-01-20T19:37:15.473Z,93.58
2023-01-20T19:39:42.024Z,93.99
2023-01-20T19:42:08.567Z,93.58
2023-01-20T19:44:35.108Z,93.58
2023-01-20T19:47:02.973Z,93.46
2023-01-20T19:49:29.659Z,93.36
2023-01-20T19:51:56.329Z,93.83
2023-01-20T19:54:22.988Z,94.03
2023-01-20T19:56:49.535Z,93.98
2023-01-20T19:59:16.068Z,93.67
2023-01-20T20:01:42.640Z,93.96
2023-01-20T20:04:11.734Z,93.80
2023-01-20T20:06:39.641Z,94.06
2023-01-20T20:09:09.385Z,94.25
2023-01-20T20:11:36.145Z,94.14
2023-01-20T20:14:04.671Z,94.51
2023-01-20T20:16:33.168Z,94.72
2023-01-20T20:19:00.260Z,94.52
2023-01-20T20:21:28.166Z,94.83
2023-01-20T20:23:56.464Z,94.89
2023-01-20T20:26:25.178Z,94.69
2023-01-20T20:28:52.363Z,95.30
2023-01-20T20:31:19.648Z,95.08
2023-01-20T20:33:46.628Z,94.68
2023-01-20T20:36:13.805Z,94.73
2023-01-20T20:38:41.843Z,95.55
2023-01-20T20:41:09.077Z,95.04
2023-01-20T20:43:36.377Z,95.16
2023-01-20T20:46:06.342Z,95.07
2023-01-20T20:48:33.205Z,95.17
2023-01-20T20:51:04.651Z,95.54
2023-01-20T20:53:31.285Z,96.22
2023-01-20T20:55:59.228Z,95.53
2023-01-20T20:58:25.878Z,95.32
2023-01-20T21:00:52.442Z,95.94
2023-01-20T21:03:19.101Z,96.33
2023-01-20T21:05:46.874Z,96.11
2023-01-20T21:08:13.469Z,96.17
2023-01-20T21:10:40.572Z,95.62
2023-01-20T21:13:08.533Z,96.20
2023-01-20T21:15:36.520Z,95.41
2023-01-20T21:18:03.861Z,95.88
2023-01-20T21:20:30.427Z,96.00
2023-01-20T21:22:57.027Z,95.15
2023-01-20T21:25:23.841Z,95.39
2023-01-20T21:27:50.725Z,95.61
2023-01-20T21:30:19.262Z,94.81
2023-01-20T21:32:45.987Z,95.72
2023-01-20T21:35:12.549Z,95.15
2023-01-20T21:37:39.269Z,95.38
2023-01-20T21:40:06.988Z,95.90
2023-01-20T21:42:33.920Z,95.88
2023-01-20T21:45:00.441Z,95.08
2023-01-20T21:47:28.426Z,95.69
2023-01-20T21:49:54.953Z,95.15
2023-01-20T21:52:23.006Z,95.76
2023-01-20T21:54:49.825Z,95.67
2023-01-20T21:57:16.436Z,95.90
2023-01-20T21:59:43.199Z,96.12
2023-01-20T22:02:12.341Z,96.23
2023-01-20T22:04:40.310Z,97.24
2023-01-20T22:07:07.133Z,97.57
2023-01-20T22:09:33.716Z,97.51
2023-01-20T22:12:00.353Z,97.27
2023-01-20T22:14:26.912Z,97.75
2023-01-20T22:16:53.576Z,97.65
2023-01-20T22:19:20.821Z,96.61
2023-01-20T22:21:48.804Z,95.68
2023-01-20T22:24:15.432Z,95.81
2023-01-20T22:26:42.109Z,96.62
2023-01-20T22:29:08.648Z,96.30
2023-01-20T22:31:35.304Z,97.14
2023-01-20T22:34:04.196Z,96.89
2023-01-20T22:36:31.331Z,96.99
2023-01-20T22:38:59.810Z,96.87
2023-01-20T22:41:26.587Z,97.38
2023-01-20T22:43:53.810Z,97.06
2023-01-20T22:46:22.555Z,97.32
2023-01-20T22:48:49.328Z,97.73
2023-01-20T22:51:18.207Z,97.66
2023-01-20T22:53:45.446Z,97.24
2023-01-20T22:56:16.855Z,97.23
2023-01-20T22:58:43.661Z,97.70
2023-01-20T23:01:12.665Z,97.39
2023-01-20T23:03:39.331Z,97.51
2023-01-20T23:06:06.254Z,97.19
2023-01-20T23:08:33.167Z,97.84
2023-01-20T23:11:01.703Z,97.84
2023-01-20T23:13:29.728Z,98.14
2023-01-20T23:15:56.651Z,97.70
2023-01-20T23:18:24.254Z,95.97
2023-01-20T23:20:52.321Z,94.52
2023-01-20T23:23:20.053Z,94.93
2023-01-20T23:25:47.094Z,94.77
2023-01-20T23:28:14.311Z,94.81
2023-01-20T23:30:42.610Z,95.16
2023-01-20T23:33:10.606Z,95.75
2023-01-20T23:35:37.432Z,95.91
2023-01-20T23:38:05.084Z,96.36
2023-01-20T23:40:32.010Z,96.53
2023-01-20T23:42:58.672Z,97.03
2023-01-20T23:45:25.515Z,97.03
2023-01-20T23:47:53.575Z,97.56
2023-01-20T23:50:20.243Z,97.62
2023-01-20T23:52:46.960Z,97.77
2023-01-20T23:55:13.586Z,97.08
2023-01-20T23:57:40.241Z,97.41
